createdAt,value
2023-02-22T00:02:26.140Z,10.43
2023-02-22T00:04:56.392Z,10.32
2023-02-22T00:07:25.067Z,11.18
2023-02-22T00:09:53.667Z,10.98
2023-02-22T00:12:22.180Z,10.00
2023-02-22T00:14:51.314Z,11.32
2023-02-22T00:17:20.843Z,11.00
2023-02-22T00:19:50.868Z,11.32
2023-02-22T00:22:20.906Z,10.77
2023-02-22T00:24:50.458Z,11.80
2023-02-22T00:27:19.174Z,11.60
2023-02-22T00:29:47.989Z,12.00
2023-02-22T00:32:16.804Z,10.65
2023-02-22T00:34:45.394Z,10.38
2023-02-22T00:37:13.895Z,13.00
2023-02-22T00:39:44.017Z,11.27
2023-02-22T00:42:12.458Z,9.33
2023-02-22T00:44:40.954Z,11.63
2023-02-22T00:47:09.735Z,12.45
2023-02-22T00:49:39.265Z,15.48
2023-02-22T00:52:09.358Z,21.88
2023-02-22T00:54:37.972Z,21.20
2023-02-22T00:57:07.876Z,16.75
2023-02-22T00:59:36.962Z,23.07
2023-02-22T01:02:05.707Z,21.65
2023-02-22T01:04:34.237Z,17.85
2023-02-22T01:07:03.473Z,16.65
2023-02-22T01:09:32.945Z,16.27
2023-02-22T01:12:01.416Z,14.98
2023-02-22T01:14:31.446Z,13.60
2023-02-22T01:17:00.023Z,12.65
2023-02-22T01:19:28.712Z,10.90
2023-02-22T01:21:57.296Z,10.32
2023-02-22T01:24:25.776Z,11.75
2023-02-22T01:26:56.241Z,9.88
2023-02-22T01:29:24.754Z,15.73
2023-02-22T01:31:57.542Z,16.08
2023-02-22T01:34:27.153Z,14.68
2023-02-22T01:36:55.730Z,18.90
2023-02-22T01:39:24.348Z,14.52
2023-02-22T01:41:53.961Z,15.50
2023-02-22T01:44:29.309Z,11.90
2023-02-22T01:47:03.635Z,9.88
2023-02-22T01:49:36.197Z,8.10
2023-02-22T01:52:09.991Z,9.32
2023-02-22T01:54:43.679Z,11.05
2023-02-22T01:57:17.412Z,9.75
2023-02-22T01:59:51.375Z,5.38
2023-02-22T02:02:25.479Z,4.03
2023-02-22T02:04:57.903Z,3.92
2023-02-22T02:07:29.902Z,3.00
2023-02-22T02:10:00.511Z,4.70
2023-02-22T02:12:31.576Z,4.43
2023-02-22T02:15:19.278Z,8.80
2023-02-22T02:17:50.240Z,10.57
2023-02-22T02:20:26.139Z,9.02
2023-02-22T02:23:02.208Z,8.23
2023-02-22T02:26:00.720Z,7.78
2023-02-22T02:29:03.151Z,5.50
2023-02-22T02:31:55.309Z,4.50
2023-02-22T02:34:33.173Z,6.15
2023-02-22T02:37:10.353Z,5.72
2023-02-22T02:39:43.693Z,5.38
2023-02-22T02:42:16.525Z,5.57
2023-02-22T02:44:51.197Z,5.28
2023-02-22T02:47:25.952Z,5.22
2023-02-22T02:49:58.520Z,9.68
2023-02-22T02:52:30.975Z,7.03
2023-02-22T02:55:00.945Z,5.03
2023-02-22T02:57:29.442Z,6.30
2023-02-22T02:59:57.964Z,6.07
2023-02-22T03:02:41.586Z,5.60
2023-02-22T03:05:27.011Z,6.38
2023-02-22T03:08:02.732Z,7.80
2023-02-22T03:10:47.287Z,7.30
2023-02-22T03:13:20.983Z,6.10
2023-02-22T03:15:57.232Z,6.20
2023-02-22T03:18:32.706Z,7.57
2023-02-22T03:21:09.027Z,8.43
2023-02-22T03:23:47.562Z,6.95
2023-02-22T03:26:24.115Z,6.55
2023-02-22T03:28:57.935Z,4.65
2023-02-22T03:31:31.265Z,6.45
2023-02-22T03:34:05.548Z,6.05
2023-02-22T03:36:39.229Z,6.40
2023-02-22T03:39:16.223Z,5.38
2023-02-22T03:41:51.668Z,6.22
2023-02-22T03:44:29.016Z,5.90
2023-02-22T03:47:02.246Z,5.63
2023-02-22T03:49:36.388Z,6.10
2023-02-22T03:52:08.339Z,5.22
2023-02-22T03:54:38.923Z,4.47
2023-02-22T03:57:12.092Z,4.10
2023-02-22T03:59:44.555Z,4.18
2023-02-22T04:02:13.592Z,4.18
2023-02-22T04:04:44.230Z,5.20
2023-02-22T04:09:42.216Z,4.38
2023-02-22T04:12:12.028Z,7.30
2023-02-22T04:14:59.488Z,5.90
2023-02-22T04:17:28.596Z,5.25
2023-02-22T04:20:00.368Z,4.38
2023-02-22T04:22:36.342Z,4.18
2023-02-22T04:25:06.310Z,5.00
2023-02-22T04:27:35.886Z,4.38
2023-02-22T04:30:05.867Z,4.38
2023-02-22T04:32:36.434Z,4.65
2023-02-22T04:35:11.143Z,4.63
2023-02-22T04:37:40.198Z,4.72
2023-02-22T04:40:11.818Z,5.60
2023-02-22T04:42:41.637Z,5.47
2023-02-22T04:45:11.631Z,5.90
2023-02-22T04:47:42.173Z,5.65
2023-02-22T04:50:14.989Z,5.22
2023-02-22T04:55:13.927Z,3.50
2023-02-22T04:57:47.869Z,4.18
2023-02-22T05:00:21.926Z,4.85
2023-02-22T05:02:58.466Z,4.93
2023-02-22T05:05:29.171Z,5.40
2023-02-22T05:07:58.198Z,4.93
2023-02-22T05:10:30.012Z,5.60
2023-02-22T05:13:03.831Z,4.90
2023-02-22T05:15:33.436Z,4.53
2023-02-22T05:18:04.289Z,3.78
2023-02-22T05:20:36.174Z,4.22
2023-02-22T05:23:07.118Z,3.17
2023-02-22T05:25:35.919Z,4.90
2023-02-22T05:28:07.384Z,4.32
2023-02-22T05:30:40.050Z,3.40
2023-02-22T05:33:09.406Z,3.67
2023-02-22T05:35:39.911Z,3.05
2023-02-22T05:38:15.329Z,3.15
2023-02-22T05:40:45.210Z,3.35
2023-02-22T05:43:14.341Z,3.20
2023-02-22T05:45:44.194Z,3.35
2023-02-22T05:48:13.890Z,3.67
2023-02-22T05:50:44.290Z,4.00
2023-02-22T05:53:21.873Z,3.60
2023-02-22T05:55:51.322Z,4.38
2023-02-22T05:58:22.583Z,4.43
2023-02-22T06:00:52.279Z,4.03
2023-02-22T06:03:23.216Z,5.05
2023-02-22T06:05:56.857Z,5.30
2023-02-22T06:08:26.015Z,7.60
2023-02-22T06:11:00.462Z,8.00
2023-02-22T06:13:32.012Z,6.63
2023-02-22T06:16:03.985Z,7.93
2023-02-22T06:18:33.443Z,7.70
2023-02-22T06:21:04.622Z,9.18
2023-02-22T06:23:36.566Z,10.30
2023-02-22T06:26:06.383Z,9.45
2023-02-22T06:28:35.746Z,9.02
2023-02-22T06:31:04.969Z,9.80
2023-02-22T06:33:33.834Z,8.18
2023-02-22T06:36:07.297Z,8.88
2023-02-22T06:38:36.238Z,7.90
2023-02-22T06:41:04.957Z,8.00
2023-02-22T06:43:36.011Z,7.80
2023-02-22T06:46:04.916Z,7.40
2023-02-22T06:48:33.812Z,9.27
2023-02-22T06:51:04.233Z,10.38
2023-02-22T06:53:33.171Z,10.20
2023-02-22T06:56:03.339Z,8.13
2023-02-22T06:58:53.395Z,10.48
2023-02-22T07:01:28.244Z,9.60
2023-02-22T07:03:59.161Z,7.75
2023-02-22T07:06:34.569Z,8.05
2023-02-22T07:09:10.493Z,8.60
2023-02-22T07:11:40.494Z,9.13
2023-02-22T07:14:12.191Z,15.48
2023-02-22T07:16:42.218Z,11.32
2023-02-22T07:19:15.728Z,12.30
2023-02-22T07:21:48.142Z,11.15
2023-02-22T07:24:17.613Z,12.38
2023-02-22T07:26:49.917Z,12.10
2023-02-22T07:29:22.700Z,11.48
2023-02-22T07:31:52.038Z,13.98
2023-02-22T07:34:20.812Z,13.95
2023-02-22T07:36:51.257Z,14.45
2023-02-22T07:39:20.912Z,13.30
2023-02-22T07:41:50.095Z,15.57
2023-02-22T07:44:25.876Z,14.57
2023-02-22T07:46:57.425Z,13.90
2023-02-22T07:49:26.362Z,16.00
2023-02-22T07:51:56.736Z,17.58
2023-02-22T07:54:28.518Z,16.30
2023-02-22T07:57:00.438Z,16.17
2023-02-22T07:59:29.725Z,14.63
2023-02-22T08:01:58.800Z,14.80
2023-02-22T08:04:27.859Z,15.35
2023-02-22T08:06:58.575Z,14.23
2023-02-22T08:09:27.618Z,13.27
2023-02-22T08:11:56.358Z,12.82
2023-02-22T08:14:26.413Z,14.60
2023-02-22T08:16:57.833Z,12.68
2023-02-22T08:19:30.148Z,14.02
2023-02-22T08:22:00.518Z,14.02
2023-02-22T08:24:30.834Z,13.40
2023-02-22T08:27:01.055Z,13.93
2023-02-22T08:29:33.826Z,12.90
2023-02-22T08:32:11.530Z,13.18
2023-02-22T08:39:46.118Z,12.77
2023-02-22T08:42:15.016Z,12.95
2023-02-22T08:44:44.084Z,13.02
2023-02-22T08:47:15.856Z,13.73
2023-02-22T08:49:44.724Z,15.32
2023-02-22T08:52:21.906Z,13.88
2023-02-22T08:54:52.609Z,14.93
2023-02-22T08:57:21.910Z,16.05
2023-02-22T08:59:51.000Z,14.10
2023-02-22T09:02:23.768Z,13.43
2023-02-22T09:04:53.229Z,14.00
2023-02-22T09:07:24.929Z,13.98
2023-02-22T09:09:54.017Z,13.93
2023-02-22T09:12:22.504Z,14.18
2023-02-22T09:14:53.059Z,14.88
2023-02-22T09:17:21.962Z,14.32
2023-02-22T09:19:50.561Z,16.08
2023-02-22T09:22:24.307Z,14.52
2023-02-22T09:24:58.473Z,15.38
2023-02-22T09:27:28.626Z,14.52
2023-02-22T09:29:57.669Z,14.23
2023-02-22T09:32:28.261Z,14.23
2023-02-22T09:34:57.327Z,14.45
2023-02-22T09:37:27.825Z,13.70
2023-02-22T09:39:56.972Z,14.32
2023-02-22T09:42:33.987Z,14.52
2023-02-22T09:45:13.049Z,14.00
2023-02-22T09:47:46.875Z,15.52
2023-02-22T09:50:22.655Z,14.13
2023-02-22T09:53:06.710Z,14.88
2023-02-22T09:55:41.363Z,14.60
2023-02-22T09:58:24.319Z,16.33
2023-02-22T10:00:59.915Z,15.13
2023-02-22T10:03:35.953Z,15.18
2023-02-22T10:06:10.860Z,15.35
2023-02-22T10:08:43.593Z,15.55
2023-02-22T10:11:27.786Z,15.43
2023-02-22T10:14:07.511Z,15.90
2023-02-22T10:16:55.005Z,14.13
2023-02-22T10:19:33.502Z,15.55
2023-02-22T10:22:14.371Z,13.75
2023-02-22T10:24:54.311Z,17.17
2023-02-22T10:27:31.877Z,15.35
2023-02-22T10:30:18.871Z,16.52
2023-02-22T10:33:05.036Z,14.20
2023-02-22T10:35:38.480Z,14.30
2023-02-22T10:38:16.985Z,14.68
2023-02-22T10:40:51.060Z,16.95
2023-02-22T10:43:20.191Z,16.73
2023-02-22T10:45:49.153Z,15.93
2023-02-22T10:48:21.646Z,15.73
2023-02-22T10:50:51.167Z,14.80
2023-02-22T10:53:20.064Z,14.88
2023-02-22T10:56:15.968Z,16.52
2023-02-22T10:58:48.607Z,15.50
2023-02-22T11:01:30.416Z,16.10
2023-02-22T11:04:10.004Z,14.13
2023-02-22T11:06:39.866Z,12.88
2023-02-22T11:09:15.388Z,14.93
2023-02-22T11:11:47.710Z,14.90
2023-02-22T11:14:29.562Z,15.68
2023-02-22T11:17:00.233Z,15.02
2023-02-22T11:19:31.354Z,14.93
2023-02-22T11:24:43.583Z,14.07
2023-02-22T11:27:31.832Z,13.75
2023-02-22T11:30:14.028Z,13.82
2023-02-22T11:32:47.212Z,14.15
2023-02-22T11:35:21.757Z,14.70
2023-02-22T11:37:52.412Z,16.13
2023-02-22T11:40:23.159Z,13.35
2023-02-22T11:43:12.488Z,12.82
2023-02-22T11:45:49.886Z,13.77
2023-02-22T11:48:25.727Z,13.40
2023-02-22T11:51:07.752Z,14.65
2023-02-22T11:53:53.989Z,12.75
2023-02-22T11:56:37.572Z,13.05
2023-02-22T11:59:23.370Z,13.80
2023-02-22T12:01:56.323Z,14.95
2023-02-22T12:04:58.755Z,14.30
2023-02-22T12:07:39.987Z,12.93
2023-02-22T12:10:21.759Z,14.23
2023-02-22T12:13:07.765Z,12.45
2023-02-22T12:15:44.726Z,11.93
2023-02-22T12:18:23.653Z,12.52
2023-02-22T12:20:57.236Z,12.93
2023-02-22T12:23:32.412Z,12.88
2023-02-22T12:26:05.535Z,12.68
2023-02-22T12:28:38.285Z,13.20
2023-02-22T12:31:21.359Z,12.02
2023-02-22T12:34:20.202Z,13.82
2023-02-22T12:36:53.475Z,12.45
2023-02-22T12:39:53.867Z,12.45
2023-02-22T12:42:31.826Z,13.27
2023-02-22T12:45:09.247Z,14.63
2023-02-22T12:47:49.748Z,12.48
2023-02-22T12:50:24.036Z,13.05
2023-02-22T12:52:58.021Z,12.38
2023-02-22T12:55:31.928Z,12.48
2023-02-22T12:58:09.173Z,11.73
2023-02-22T13:00:43.341Z,12.30
2023-02-22T13:03:29.531Z,11.18
2023-02-22T13:06:11.196Z,11.45
2023-02-22T13:08:48.137Z,11.93
2023-02-22T13:11:23.967Z,11.85
2023-02-22T13:14:04.519Z,13.43
2023-02-22T13:16:46.026Z,12.45
2023-02-22T13:19:27.641Z,13.07
2023-02-22T13:22:00.524Z,12.02
2023-02-22T13:24:36.538Z,12.95
2023-02-22T13:27:12.545Z,12.07
2023-02-22T13:29:45.092Z,12.02
2023-02-22T13:32:27.982Z,13.10
2023-02-22T13:35:16.486Z,12.45
2023-02-22T13:38:07.826Z,11.82
2023-02-22T13:43:56.690Z,10.13
2023-02-22T13:46:59.615Z,10.38
2023-02-22T13:49:52.113Z,11.85
2023-02-22T13:52:26.200Z,12.85
2023-02-22T13:55:01.113Z,12.93
2023-02-22T13:57:35.446Z,13.45
2023-02-22T14:00:45.012Z,12.57
2023-02-22T14:03:41.445Z,11.05
2023-02-22T14:06:43.440Z,11.57
2023-02-22T14:09:20.397Z,11.93
2023-02-22T14:11:54.493Z,11.30
2023-02-22T14:14:23.257Z,11.73
2023-02-22T14:17:24.455Z,11.52
2023-02-22T14:22:47.666Z,11.45
2023-02-22T14:25:41.217Z,11.43
2023-02-22T14:28:31.525Z,12.27
2023-02-22T14:31:09.079Z,11.93
2023-02-22T14:34:10.077Z,12.02
2023-02-22T14:36:46.171Z,11.00
2023-02-22T14:39:20.973Z,12.07
2023-02-22T14:41:56.215Z,14.02
2023-02-22T14:44:31.357Z,11.70
2023-02-22T14:47:05.276Z,12.40
2023-02-22T14:49:38.606Z,12.70
2023-02-22T14:52:19.753Z,13.52
2023-02-22T14:57:30.688Z,12.43
2023-02-22T15:00:31.649Z,12.65
2023-02-22T15:03:01.855Z,11.45
2023-02-22T15:05:38.654Z,11.33
2023-02-22T15:08:10.089Z,11.48
2023-02-22T15:10:44.302Z,12.07
2023-02-22T15:13:20.993Z,11.32
2023-02-22T15:15:51.238Z,10.98
2023-02-22T15:18:25.101Z,11.32
2023-02-22T15:20:58.046Z,10.77
2023-02-22T15:23:30.514Z,9.13
2023-02-22T15:26:00.362Z,10.70
2023-02-22T15:28:32.583Z,9.40
2023-02-22T15:31:21.059Z,9.85
2023-02-22T15:33:53.410Z,9.15
2023-02-22T15:36:28.721Z,9.27
2023-02-22T15:38:59.877Z,9.90
2023-02-22T15:41:32.854Z,10.02
2023-02-22T15:44:23.346Z,10.13
2023-02-22T15:46:56.809Z,9.45
2023-02-22T15:49:26.481Z,11.38
2023-02-22T15:52:06.728Z,10.15
2023-02-22T15:54:47.697Z,10.98
2023-02-22T15:57:19.285Z,11.60
2023-02-22T15:59:53.718Z,10.68
2023-02-22T16:02:33.128Z,11.45
2023-02-22T16:05:06.603Z,13.45
2023-02-22T16:07:39.564Z,15.18
2023-02-22T16:10:10.357Z,16.02
2023-02-22T16:12:39.016Z,16.02
2023-02-22T16:15:17.858Z,12.88
2023-02-22T16:18:01.560Z,14.40
2023-02-22T16:20:36.319Z,13.57
2023-02-22T16:23:26.077Z,9.57
2023-02-22T16:26:23.385Z,6.22
2023-02-22T16:28:54.258Z,4.65
2023-02-22T16:36:25.974Z,6.10
2023-02-22T16:38:54.493Z,5.47
2023-02-22T16:41:22.979Z,5.45
2023-02-22T16:43:52.255Z,5.72
2023-02-22T16:46:21.107Z,6.55
2023-02-22T16:48:51.215Z,7.18
2023-02-22T16:51:23.380Z,7.50
2023-02-22T16:53:54.556Z,6.80
2023-02-22T16:56:30.508Z,5.18
2023-02-22T16:59:02.960Z,5.40
2023-02-22T17:01:35.327Z,5.60
2023-02-22T17:04:16.337Z,5.25
2023-02-22T17:06:44.998Z,4.82
2023-02-22T17:09:13.801Z,2.72
2023-02-22T17:11:42.498Z,3.67
2023-02-22T17:14:17.943Z,5.03
2023-02-22T17:16:47.899Z,5.82
2023-02-22T17:19:20.054Z,6.35
2023-02-22T17:21:49.318Z,7.47
2023-02-22T17:24:20.260Z,6.80
2023-02-22T17:26:48.896Z,6.20
2023-02-22T17:29:18.023Z,10.80
2023-02-22T17:31:49.092Z,12.18
2023-02-22T17:34:19.195Z,12.75
2023-02-22T17:36:47.916Z,14.48
2023-02-22T17:39:16.668Z,12.73
2023-02-22T17:41:45.309Z,11.30
2023-02-22T17:44:14.158Z,8.57
2023-02-22T17:46:42.851Z,9.60
2023-02-22T17:49:13.861Z,9.27
2023-02-22T17:54:18.881Z,8.55
2023-02-22T17:56:47.338Z,8.93
2023-02-22T17:59:15.996Z,9.13
2023-02-22T18:01:44.641Z,10.88
2023-02-22T18:04:13.348Z,10.27
2023-02-22T18:06:43.435Z,10.20
2023-02-22T18:09:12.048Z,11.68
2023-02-22T18:11:41.097Z,10.95
2023-02-22T18:14:11.086Z,9.20
2023-02-22T18:16:39.883Z,7.00
2023-02-22T18:19:08.402Z,7.57
2023-02-22T18:21:38.817Z,5.22
2023-02-22T18:24:09.372Z,5.05
2023-02-22T18:26:39.257Z,10.27
2023-02-22T18:29:08.093Z,14.75
2023-02-22T18:31:36.603Z,15.48
2023-02-22T18:34:05.177Z,10.32
2023-02-22T18:36:33.763Z,10.90
2023-02-22T18:39:03.433Z,9.32
2023-02-22T18:41:33.427Z,10.93
2023-02-22T18:44:03.432Z,11.27
2023-02-22T18:46:31.954Z,10.07
2023-02-22T18:49:00.751Z,9.85
2023-02-22T18:51:29.588Z,9.98
2023-02-22T18:54:01.096Z,13.07
2023-02-22T18:56:31.333Z,10.73
2023-02-22T18:59:03.544Z,10.30
2023-02-22T19:01:35.846Z,9.73
2023-02-22T19:04:04.652Z,9.75
2023-02-22T19:06:35.162Z,12.10
2023-02-22T19:09:08.838Z,12.60
2023-02-22T19:11:40.247Z,10.75
2023-02-22T19:14:11.481Z,11.60
2023-02-22T19:16:40.401Z,12.30
2023-02-22T19:19:09.360Z,11.07
2023-02-22T19:21:37.980Z,12.50
2023-02-22T19:24:07.414Z,11.25
2023-02-22T19:26:36.011Z,13.10
2023-02-22T19:29:08.648Z,14.77
2023-02-22T19:31:40.282Z,15.38
2023-02-22T19:34:11.753Z,13.88
2023-02-22T19:36:41.468Z,13.23
2023-02-22T19:39:10.292Z,13.27
2023-02-22T19:41:39.592Z,13.38
2023-02-22T19:44:08.537Z,12.10
2023-02-22T19:46:38.742Z,9.90
2023-02-22T19:49:08.168Z,10.40
2023-02-22T19:51:36.812Z,7.70
2023-02-22T19:54:07.851Z,10.32
2023-02-22T19:56:36.690Z,9.15
2023-02-22T19:59:11.002Z,10.25
2023-02-22T20:01:44.620Z,8.40
2023-02-22T20:04:18.288Z,7.43
2023-02-22T20:06:47.464Z,8.38
2023-02-22T20:09:18.265Z,8.63
2023-02-22T20:14:19.204Z,8.82
2023-02-22T20:16:49.187Z,9.68
2023-02-22T20:19:17.620Z,8.15
2023-02-22T20:21:46.493Z,8.15
2023-02-22T20:24:18.559Z,6.63
2023-02-22T20:26:47.709Z,6.68
2023-02-22T20:29:17.573Z,7.97
2023-02-22T20:31:49.486Z,7.72
2023-02-22T20:34:19.454Z,7.00
2023-02-22T20:36:47.819Z,8.60
2023-02-22T20:39:16.596Z,7.47
2023-02-22T20:41:47.195Z,8.23
2023-02-22T20:46:46.035Z,5.65
2023-02-22T20:49:17.422Z,6.70
2023-02-22T20:51:48.998Z,7.55
2023-02-22T20:54:18.409Z,7.40
2023-02-22T20:56:48.147Z,6.75
2023-02-22T20:59:18.809Z,7.68
2023-02-22T21:04:16.295Z,6.43
2023-02-22T21:06:46.951Z,6.93
2023-02-22T21:09:17.925Z,7.43
2023-02-22T21:11:47.055Z,7.20
2023-02-22T21:14:18.934Z,8.52
2023-02-22T21:16:49.869Z,7.28
2023-02-22T21:19:25.797Z,6.97
2023-02-22T21:21:58.156Z,7.80
2023-02-22T21:24:27.969Z,8.57
2023-02-22T21:26:59.127Z,7.93
2023-02-22T21:29:28.329Z,6.97
2023-02-22T21:31:57.206Z,7.57
2023-02-22T21:34:26.508Z,7.70
2023-02-22T21:36:56.981Z,8.60
2023-02-22T21:39:28.717Z,8.25
2023-02-22T21:42:00.814Z,9.05
2023-02-22T21:44:30.410Z,6.70
2023-02-22T21:46:58.843Z,6.30
2023-02-22T21:49:27.415Z,8.65
2023-02-22T21:51:57.778Z,6.88
2023-02-22T21:54:28.160Z,7.55
2023-02-22T21:56:56.821Z,8.15
2023-02-22T21:59:25.387Z,8.77
2023-02-22T22:01:56.363Z,6.68
2023-02-22T22:04:27.878Z,6.35
2023-02-22T22:06:59.710Z,7.15
2023-02-22T22:09:33.378Z,7.38
2023-02-22T22:12:05.429Z,7.38
2023-02-22T22:14:35.145Z,7.35
2023-02-22T22:17:05.957Z,6.37
2023-02-22T22:19:39.478Z,7.75
2023-02-22T22:22:09.950Z,8.65
2023-02-22T22:24:41.649Z,9.68
2023-02-22T22:27:13.025Z,7.78
2023-02-22T22:29:43.591Z,7.88
2023-02-22T22:32:12.423Z,7.47
2023-02-22T22:34:42.737Z,7.68
2023-02-22T22:37:13.519Z,7.13
2023-02-22T22:39:42.617Z,7.47
2023-02-22T22:42:11.187Z,6.55
2023-02-22T22:44:42.386Z,6.57
2023-02-22T22:47:12.786Z,7.53
2023-02-22T22:49:42.873Z,7.22
2023-02-22T22:52:14.166Z,7.47
2023-02-22T22:54:43.518Z,8.57
2023-02-22T22:57:12.333Z,8.20
2023-02-22T22:59:41.061Z,6.68
2023-02-22T23:02:11.645Z,8.55
2023-02-22T23:07:08.876Z,6.68
2023-02-22T23:09:39.665Z,6.45
2023-02-22T23:12:09.975Z,8.30
2023-02-22T23:14:44.214Z,9.35
2023-02-22T23:17:15.570Z,7.90
2023-02-22T23:19:46.201Z,8.70
2023-02-22T23:24:45.820Z,7.03
2023-02-22T23:27:14.701Z,8.15
2023-02-22T23:29:47.036Z,9.38
2023-02-22T23:32:15.900Z,7.50
2023-02-22T23:34:44.474Z,8.45
2023-02-22T23:37:14.368Z,8.77
2023-02-22T23:39:44.614Z,9.45
2023-02-22T23:42:16.918Z,9.73
2023-02-22T23:44:46.582Z,8.63
2023-02-22T23:47:16.322Z,8.52
2023-02-22T23:49:49.647Z,10.23
2023-02-22T23:52:24.309Z,8.30
2023-02-22T23:54:54.854Z,8.80
2023-02-22T23:57:24.814Z,8.18
2023-02-22T23:59:53.300Z,8.75
